sensor_id;sensor_type;location;lat;lon;timestamp;P1;durP1;ratioP1;P2;durP2;ratioP2
22080;SDS011;11207;59.512;18.050;2023-06-19T00:00:28;12.00;;;9.50;;
22080;SDS011;11207;59.512;18.050;2023-06-19T00:02:55;11.23;;;10.07;;
22080;SDS011;11207;59.512;18.050;2023-06-19T00:05:21;13.47;;;10.60;;
22080;SDS011;11207;59.512;18.050;2023-06-19T00:07:48;11.70;;;10.50;;
22080;SDS011;11207;59.512;18.050;2023-06-19T00:10:14;12.37;;;9.90;;
22080;SDS011;11207;59.512;18.050;2023-06-19T00:12:40;12.07;;;10.73;;
22080;SDS011;11207;59.512;18.050;2023-06-19T00:15:06;10.47;;;9.37;;
22080;SDS011;11207;59.512;18.050;2023-06-19T00:17:34;12.97;;;9.23;;
22080;SDS011;11207;59.512;18.050;2023-06-19T00:20:02;12.90;;;10.33;;
22080;SDS011;11207;59.512;18.050;2023-06-19T00:22:29;12.67;;;10.00;;
22080;SDS011;11207;59.512;18.050;2023-06-19T00:24:54;11.57;;;10.47;;
22080;SDS011;11207;59.512;18.050;2023-06-19T00:27:20;14.43;;;10.87;;
22080;SDS011;11207;59.512;18.050;2023-06-19T00:29:45;11.20;;;9.67;;
22080;SDS011;11207;59.512;18.050;2023-06-19T00:32:11;11.50;;;9.03;;
22080;SDS011;11207;59.512;18.050;2023-06-19T00:34:37;12.07;;;9.63;;
22080;SDS011;11207;59.512;18.050;2023-06-19T00:37:03;11.90;;;9.73;;
22080;SDS011;11207;59.512;18.050;2023-06-19T00:39:29;14.10;;;11.63;;
22080;SDS011;11207;59.512;18.050;2023-06-19T00:41:55;11.57;;;10.43;;
22080;SDS011;11207;59.512;18.050;2023-06-19T00:44:21;14.90;;;10.70;;
22080;SDS011;11207;59.512;18.050;2023-06-19T00:46:47;11.93;;;9.63;;
22080;SDS011;11207;59.512;18.050;2023-06-19T00:49:19;12.33;;;10.33;;
22080;SDS011;11207;59.512;18.050;2023-06-19T00:51:46;13.47;;;9.87;;
22080;SDS011;11207;59.512;18.050;2023-06-19T00:54:12;10.70;;;9.60;;
22080;SDS011;11207;59.512;18.050;2023-06-19T00:56:37;11.47;;;9.93;;
22080;SDS011;11207;59.512;18.050;2023-06-19T00:59:11;12.73;;;10.00;;
22080;SDS011;11207;59.512;18.050;2023-06-19T01:01:41;12.37;;;10.67;;
22080;SDS011;11207;59.512;18.050;2023-06-19T01:04:07;11.93;;;10.20;;
22080;SDS011;11207;59.512;18.050;2023-06-19T01:06:37;13.87;;;11.30;;
22080;SDS011;11207;59.512;18.050;2023-06-19T01:09:16;12.27;;;9.73;;
22080;SDS011;11207;59.512;18.050;2023-06-19T01:11:44;12.33;;;11.03;;
22080;SDS011;11207;59.512;18.050;2023-06-19T01:14:27;12.23;;;10.93;;
22080;SDS011;11207;59.512;18.050;2023-06-19T01:16:57;13.13;;;11.40;;
22080;SDS011;11207;59.512;18.050;2023-06-19T01:19:23;16.27;;;12.80;;
22080;SDS011;11207;59.512;18.050;2023-06-19T01:21:50;13.63;;;11.50;;
22080;SDS011;11207;59.512;18.050;2023-06-19T01:24:16;12.60;;;11.03;;
22080;SDS011;11207;59.512;18.050;2023-06-19T01:26:42;11.30;;;10.10;;
22080;SDS011;11207;59.512;18.050;2023-06-19T01:29:11;15.80;;;12.27;;
22080;SDS011;11207;59.512;18.050;2023-06-19T01:31:42;12.77;;;10.20;;
22080;SDS011;11207;59.512;18.050;2023-06-19T01:34:19;13.90;;;11.27;;
22080;SDS011;11207;59.512;18.050;2023-06-19T01:36:47;13.60;;;10.77;;
22080;SDS011;11207;59.512;18.050;2023-06-19T01:39:15;13.50;;;12.07;;
22080;SDS011;11207;59.512;18.050;2023-06-19T01:41:42;15.83;;;12.47;;
22080;SDS011;11207;59.512;18.050;2023-06-19T01:44:09;12.50;;;10.93;;
22080;SDS011;11207;59.512;18.050;2023-06-19T01:46:35;13.57;;;11.17;;
22080;SDS011;11207;59.512;18.050;2023-06-19T01:49:01;13.43;;;11.10;;
22080;SDS011;11207;59.512;18.050;2023-06-19T01:51:32;13.40;;;11.93;;
22080;SDS011;11207;59.512;18.050;2023-06-19T01:53:58;15.70;;;11.80;;
22080;SDS011;11207;59.512;18.050;2023-06-19T01:56:23;16.47;;;13.50;;
22080;SDS011;11207;59.512;18.050;2023-06-19T01:58:49;13.40;;;11.80;;
22080;SDS011;11207;59.512;18.050;2023-06-19T02:01:15;14.20;;;11.80;;
22080;SDS011;11207;59.512;18.050;2023-06-19T02:03:40;20.37;;;13.10;;
22080;SDS011;11207;59.512;18.050;2023-06-19T02:06:06;13.20;;;11.43;;
22080;SDS011;11207;59.512;18.050;2023-06-19T02:08:32;14.70;;;12.77;;
22080;SDS011;11207;59.512;18.050;2023-06-19T02:10:57;15.43;;;12.03;;
22080;SDS011;11207;59.512;18.050;2023-06-19T02:13:23;16.07;;;10.53;;
22080;SDS011;11207;59.512;18.050;2023-06-19T02:15:49;14.00;;;11.27;;
22080;SDS011;11207;59.512;18.050;2023-06-19T02:18:14;14.53;;;12.37;;
22080;SDS011;11207;59.512;18.050;2023-06-19T02:20:40;16.40;;;13.20;;
22080;SDS011;11207;59.512;18.050;2023-06-19T02:23:05;14.60;;;11.70;;
22080;SDS011;11207;59.512;18.050;2023-06-19T02:25:31;16.77;;;12.50;;
22080;SDS011;11207;59.512;18.050;2023-06-19T02:27:57;13.63;;;10.00;;
22080;SDS011;11207;59.512;18.050;2023-06-19T02:30:22;17.03;;;11.97;;
22080;SDS011;11207;59.512;18.050;2023-06-19T02:32:48;16.00;;;10.70;;
22080;SDS011;11207;59.512;18.050;2023-06-19T02:35:13;12.80;;;10.60;;
22080;SDS011;11207;59.512;18.050;2023-06-19T02:37:40;13.90;;;11.43;;
22080;SDS011;11207;59.512;18.050;2023-06-19T02:40:06;11.07;;;9.90;;
22080;SDS011;11207;59.512;18.050;2023-06-19T02:42:34;12.93;;;10.43;;
22080;SDS011;11207;59.512;18.050;2023-06-19T02:44:59;11.07;;;9.63;;
22080;SDS011;11207;59.512;18.050;2023-06-19T02:47:31;14.60;;;11.23;;
22080;SDS011;11207;59.512;18.050;2023-06-19T02:50:00;14.20;;;10.67;;
22080;SDS011;11207;59.512;18.050;2023-06-19T02:52:27;12.10;;;10.33;;
22080;SDS011;11207;59.512;18.050;2023-06-19T02:54:53;10.83;;;9.67;;
22080;SDS011;11207;59.512;18.050;2023-06-19T02:57:19;13.50;;;9.77;;
22080;SDS011;11207;59.512;18.050;2023-06-19T02:59:45;16.40;;;11.30;;
22080;SDS011;11207;59.512;18.050;2023-06-19T03:02:11;11.40;;;9.50;;
22080;SDS011;11207;59.512;18.050;2023-06-19T03:04:36;13.23;;;9.83;;
22080;SDS011;11207;59.512;18.050;2023-06-19T03:07:02;13.90;;;12.37;;
22080;SDS011;11207;59.512;18.050;2023-06-19T03:09:28;11.30;;;9.20;;
22080;SDS011;11207;59.512;18.050;2023-06-19T03:11:54;11.93;;;10.17;;
22080;SDS011;11207;59.512;18.050;2023-06-19T03:14:19;11.50;;;9.60;;
22080;SDS011;11207;59.512;18.050;2023-06-19T03:16:45;17.77;;;11.53;;
22080;SDS011;11207;59.512;18.050;2023-06-19T03:19:12;13.77;;;10.23;;
22080;SDS011;11207;59.512;18.050;2023-06-19T03:21:37;14.43;;;10.30;;
22080;SDS011;11207;59.512;18.050;2023-06-19T03:24:03;12.30;;;10.20;;
22080;SDS011;11207;59.512;18.050;2023-06-19T03:26:29;13.67;;;11.23;;
22080;SDS011;11207;59.512;18.050;2023-06-19T03:28:54;11.67;;;9.90;;
22080;SDS011;11207;59.512;18.050;2023-06-19T03:31:20;12.00;;;9.67;;
22080;SDS011;11207;59.512;18.050;2023-06-19T03:33:46;10.93;;;9.70;;
22080;SDS011;11207;59.512;18.050;2023-06-19T03:36:11;12.07;;;9.93;;
22080;SDS011;11207;59.512;18.050;2023-06-19T03:38:37;11.90;;;10.60;;
22080;SDS011;11207;59.512;18.050;2023-06-19T03:41:03;15.13;;;11.93;;
22080;SDS011;11207;59.512;18.050;2023-06-19T03:43:28;12.13;;;10.00;;
22080;SDS011;11207;59.512;18.050;2023-06-19T03:45:54;13.23;;;10.00;;
22080;SDS011;11207;59.512;18.050;2023-06-19T03:48:19;13.73;;;11.23;;
22080;SDS011;11207;59.512;18.050;2023-06-19T03:50:45;14.63;;;10.63;;
22080;SDS011;11207;59.512;18.050;2023-06-19T03:53:11;13.13;;;10.17;;
22080;SDS011;11207;59.512;18.050;2023-06-19T03:55:36;14.53;;;11.37;;
22080;SDS011;11207;59.512;18.050;2023-06-19T03:58:02;12.83;;;10.97;;
22080;SDS011;11207;59.512;18.050;2023-06-19T04:00:28;13.93;;;10.67;;
22080;SDS011;11207;59.512;18.050;2023-06-19T04:02:53;14.53;;;11.07;;
22080;SDS011;11207;59.512;18.050;2023-06-19T04:05:19;15.80;;;11.33;;
22080;SDS011;11207;59.512;18.050;2023-06-19T04:07:45;11.57;;;9.90;;
22080;SDS011;11207;59.512;18.050;2023-06-19T04:10:11;13.90;;;9.83;;
22080;SDS011;11207;59.512;18.050;2023-06-19T04:12:37;13.17;;;10.70;;
22080;SDS011;11207;59.512;18.050;2023-06-19T04:15:03;14.80;;;10.50;;
22080;SDS011;11207;59.512;18.050;2023-06-19T04:17:29;13.43;;;10.47;;
22080;SDS011;11207;59.512;18.050;2023-06-19T04:19:55;14.93;;;11.30;;
22080;SDS011;11207;59.512;18.050;2023-06-19T04:22:20;15.23;;;11.33;;
22080;SDS011;11207;59.512;18.050;2023-06-19T04:24:46;13.87;;;10.30;;
22080;SDS011;11207;59.512;18.050;2023-06-19T04:27:12;14.17;;;11.27;;
22080;SDS011;11207;59.512;18.050;2023-06-19T04:29:37;16.37;;;11.17;;
22080;SDS011;11207;59.512;18.050;2023-06-19T04:32:03;14.80;;;10.53;;
22080;SDS011;11207;59.512;18.050;2023-06-19T04:34:36;13.30;;;10.53;;
22080;SDS011;11207;59.512;18.050;2023-06-19T04:37:11;16.27;;;11.50;;
22080;SDS011;11207;59.512;18.050;2023-06-19T04:39:37;16.57;;;10.67;;
22080;SDS011;11207;59.512;18.050;2023-06-19T04:42:03;16.27;;;10.97;;
22080;SDS011;11207;59.512;18.050;2023-06-19T04:44:28;12.20;;;10.70;;
22080;SDS011;11207;59.512;18.050;2023-06-19T04:46:58;12.90;;;11.33;;
22080;SDS011;11207;59.512;18.050;2023-06-19T04:49:27;14.87;;;10.37;;
22080;SDS011;11207;59.512;18.050;2023-06-19T04:51:54;13.23;;;10.27;;
22080;SDS011;11207;59.512;18.050;2023-06-19T04:54:21;14.57;;;11.23;;
22080;SDS011;11207;59.512;18.050;2023-06-19T04:56:46;17.30;;;11.43;;
22080;SDS011;11207;59.512;18.050;2023-06-19T04:59:12;13.27;;;10.57;;
22080;SDS011;11207;59.512;18.050;2023-06-19T05:01:37;12.83;;;10.07;;
22080;SDS011;11207;59.512;18.050;2023-06-19T05:04:05;14.50;;;11.23;;
22080;SDS011;11207;59.512;18.050;2023-06-19T05:06:30;14.47;;;11.10;;
22080;SDS011;11207;59.512;18.050;2023-06-19T05:08:56;14.47;;;10.90;;
22080;SDS011;11207;59.512;18.050;2023-06-19T05:11:22;15.83;;;11.33;;
22080;SDS011;11207;59.512;18.050;2023-06-19T05:13:48;14.50;;;11.00;;
22080;SDS011;11207;59.512;18.050;2023-06-19T05:16:13;16.20;;;11.67;;
22080;SDS011;11207;59.512;18.050;2023-06-19T05:18:41;12.43;;;10.27;;
22080;SDS011;11207;59.512;18.050;2023-06-19T05:21:08;12.10;;;9.30;;
22080;SDS011;11207;59.512;18.050;2023-06-19T05:23:33;13.00;;;10.67;;
22080;SDS011;11207;59.512;18.050;2023-06-19T05:26:00;18.30;;;11.87;;
22080;SDS011;11207;59.512;18.050;2023-06-19T05:28:25;12.00;;;10.10;;
22080;SDS011;11207;59.512;18.050;2023-06-19T05:30:51;13.10;;;10.90;;
22080;SDS011;11207;59.512;18.050;2023-06-19T05:33:17;12.47;;;10.77;;
22080;SDS011;11207;59.512;18.050;2023-06-19T05:35:42;16.03;;;12.20;;
22080;SDS011;11207;59.512;18.050;2023-06-19T05:38:08;15.03;;;10.50;;
22080;SDS011;11207;59.512;18.050;2023-06-19T05:40:34;11.93;;;10.37;;
22080;SDS011;11207;59.512;18.050;2023-06-19T05:43:00;15.03;;;10.90;;
22080;SDS011;11207;59.512;18.050;2023-06-19T05:45:26;11.73;;;10.53;;
22080;SDS011;11207;59.512;18.050;2023-06-19T05:47:52;12.30;;;10.60;;
22080;SDS011;11207;59.512;18.050;2023-06-19T05:50:17;12.53;;;10.70;;
22080;SDS011;11207;59.512;18.050;2023-06-19T05:52:43;15.17;;;11.60;;
22080;SDS011;11207;59.512;18.050;2023-06-19T05:55:11;14.63;;;12.03;;
22080;SDS011;11207;59.512;18.050;2023-06-19T05:57:37;15.40;;;11.77;;
22080;SDS011;11207;59.512;18.050;2023-06-19T06:00:03;18.63;;;11.83;;
22080;SDS011;11207;59.512;18.050;2023-06-19T06:02:30;13.20;;;11.80;;
22080;SDS011;11207;59.512;18.050;2023-06-19T06:04:56;11.90;;;10.60;;
22080;SDS011;11207;59.512;18.050;2023-06-19T06:07:22;17.27;;;11.77;;
22080;SDS011;11207;59.512;18.050;2023-06-19T06:09:48;17.67;;;12.87;;
22080;SDS011;11207;59.512;18.050;2023-06-19T06:12:13;18.03;;;13.20;;
22080;SDS011;11207;59.512;18.050;2023-06-19T06:14:40;13.07;;;10.80;;
22080;SDS011;11207;59.512;18.050;2023-06-19T06:17:06;12.80;;;11.30;;
22080;SDS011;11207;59.512;18.050;2023-06-19T06:19:32;12.93;;;11.50;;
22080;SDS011;11207;59.512;18.050;2023-06-19T06:21:57;14.47;;;11.03;;
22080;SDS011;11207;59.512;18.050;2023-06-19T06:24:23;17.73;;;13.00;;
22080;SDS011;11207;59.512;18.050;2023-06-19T06:26:49;17.00;;;11.83;;
22080;SDS011;11207;59.512;18.050;2023-06-19T06:29:14;14.20;;;10.77;;
22080;SDS011;11207;59.512;18.050;2023-06-19T06:31:40;13.30;;;10.63;;
22080;SDS011;11207;59.512;18.050;2023-06-19T06:34:06;13.80;;;11.37;;
22080;SDS011;11207;59.512;18.050;2023-06-19T06:36:32;12.43;;;10.13;;
22080;SDS011;11207;59.512;18.050;2023-06-19T06:38:58;13.93;;;11.10;;
22080;SDS011;11207;59.512;18.050;2023-06-19T06:41:23;14.30;;;10.63;;
22080;SDS011;11207;59.512;18.050;2023-06-19T06:43:49;16.43;;;11.57;;
22080;SDS011;11207;59.512;18.050;2023-06-19T06:46:14;11.10;;;9.90;;
22080;SDS011;11207;59.512;18.050;2023-06-19T06:48:40;13.43;;;10.90;;
22080;SDS011;11207;59.512;18.050;2023-06-19T06:51:06;15.30;;;11.53;;
22080;SDS011;11207;59.512;18.050;2023-06-19T06:53:32;15.37;;;10.30;;
22080;SDS011;11207;59.512;18.050;2023-06-19T06:55:58;13.50;;;10.37;;
22080;SDS011;11207;59.512;18.050;2023-06-19T06:58:25;12.60;;;10.30;;
22080;SDS011;11207;59.512;18.050;2023-06-19T07:00:51;14.67;;;10.13;;
22080;SDS011;11207;59.512;18.050;2023-06-19T07:03:17;11.80;;;8.90;;
22080;SDS011;11207;59.512;18.050;2023-06-19T07:05:45;14.67;;;9.47;;
22080;SDS011;11207;59.512;18.050;2023-06-19T07:08:12;13.77;;;9.43;;
22080;SDS011;11207;59.512;18.050;2023-06-19T07:10:37;10.67;;;8.50;;
22080;SDS011;11207;59.512;18.050;2023-06-19T07:13:03;9.67;;;7.97;;
22080;SDS011;11207;59.512;18.050;2023-06-19T07:15:29;10.67;;;7.80;;
22080;SDS011;11207;59.512;18.050;2023-06-19T07:17:55;12.43;;;9.30;;
22080;SDS011;11207;59.512;18.050;2023-06-19T07:20:21;9.23;;;7.47;;
22080;SDS011;11207;59.512;18.050;2023-06-19T07:22:47;10.60;;;7.90;;
22080;SDS011;11207;59.512;18.050;2023-06-19T07:25:15;9.15;;;7.00;;
22080;SDS011;11207;59.512;18.050;2023-06-19T07:27:41;10.40;;;7.90;;
22080;SDS011;11207;59.512;18.050;2023-06-19T07:30:09;10.50;;;6.95;;
22080;SDS011;11207;59.512;18.050;2023-06-19T07:32:36;9.73;;;8.00;;
22080;SDS011;11207;59.512;18.050;2023-06-19T07:35:02;10.68;;;7.75;;
22080;SDS011;11207;59.512;18.050;2023-06-19T07:37:28;11.25;;;7.40;;
22080;SDS011;11207;59.512;18.050;2023-06-19T07:39:56;9.82;;;7.25;;
22080;SDS011;11207;59.512;18.050;2023-06-19T07:42:22;7.62;;;6.82;;
22080;SDS011;11207;59.512;18.050;2023-06-19T07:44:47;8.82;;;7.47;;
22080;SDS011;11207;59.512;18.050;2023-06-19T07:47:15;10.32;;;7.25;;
22080;SDS011;11207;59.512;18.050;2023-06-19T07:49:41;9.10;;;7.20;;
22080;SDS011;11207;59.512;18.050;2023-06-19T07:52:07;8.55;;;6.75;;
22080;SDS011;11207;59.512;18.050;2023-06-19T07:54:34;7.93;;;6.60;;
22080;SDS011;11207;59.512;18.050;2023-06-19T07:57:00;7.87;;;6.45;;
22080;SDS011;11207;59.512;18.050;2023-06-19T07:59:25;11.35;;;7.12;;
22080;SDS011;11207;59.512;18.050;2023-06-19T08:01:51;9.63;;;7.10;;
22080;SDS011;11207;59.512;18.050;2023-06-19T08:04:17;9.00;;;7.60;;
22080;SDS011;11207;59.512;18.050;2023-06-19T08:06:43;11.15;;;7.53;;
22080;SDS011;11207;59.512;18.050;2023-06-19T08:09:08;8.52;;;6.78;;
22080;SDS011;11207;59.512;18.050;2023-06-19T08:11:34;11.75;;;6.87;;
22080;SDS011;11207;59.512;18.050;2023-06-19T08:14:00;11.80;;;6.47;;
22080;SDS011;11207;59.512;18.050;2023-06-19T08:16:26;9.25;;;7.28;;
22080;SDS011;11207;59.512;18.050;2023-06-19T08:18:52;7.15;;;6.43;;
22080;SDS011;11207;59.512;18.050;2023-06-19T08:21:18;8.30;;;6.43;;
22080;SDS011;11207;59.512;18.050;2023-06-19T08:23:46;10.80;;;7.00;;
22080;SDS011;11207;59.512;18.050;2023-06-19T08:26:12;9.90;;;6.82;;
22080;SDS011;11207;59.512;18.050;2023-06-19T08:28:37;11.77;;;6.95;;
22080;SDS011;11207;59.512;18.050;2023-06-19T08:31:03;8.10;;;6.37;;
22080;SDS011;11207;59.512;18.050;2023-06-19T08:33:29;10.27;;;6.50;;
22080;SDS011;11207;59.512;18.050;2023-06-19T08:35:55;9.90;;;6.85;;
22080;SDS011;11207;59.512;18.050;2023-06-19T08:38:21;8.07;;;6.70;;
22080;SDS011;11207;59.512;18.050;2023-06-19T08:40:46;7.57;;;6.50;;
22080;SDS011;11207;59.512;18.050;2023-06-19T08:43:13;9.60;;;7.05;;
22080;SDS011;11207;59.512;18.050;2023-06-19T08:45:39;7.95;;;6.37;;
22080;SDS011;11207;59.512;18.050;2023-06-19T08:48:05;9.90;;;6.82;;
22080;SDS011;11207;59.512;18.050;2023-06-19T08:50:33;7.87;;;6.22;;
22080;SDS011;11207;59.512;18.050;2023-06-19T08:52:59;11.90;;;6.47;;
22080;SDS011;11207;59.512;18.050;2023-06-19T08:55:24;8.68;;;6.25;;
22080;SDS011;11207;59.512;18.050;2023-06-19T08:57:50;8.35;;;6.70;;
22080;SDS011;11207;59.512;18.050;2023-06-19T09:00:24;9.43;;;7.00;;
22080;SDS011;11207;59.512;18.050;2023-06-19T09:02:51;11.65;;;6.10;;
22080;SDS011;11207;59.512;18.050;2023-06-19T09:05:18;11.93;;;6.72;;
22080;SDS011;11207;59.512;18.050;2023-06-19T09:07:44;11.60;;;6.30;;
22080;SDS011;11207;59.512;18.050;2023-06-19T09:10:20;15.15;;;7.47;;
22080;SDS011;11207;59.512;18.050;2023-06-19T09:12:56;10.77;;;6.87;;
22080;SDS011;11207;59.512;18.050;2023-06-19T09:15:34;9.38;;;6.82;;
22080;SDS011;11207;59.512;18.050;2023-06-19T09:18:02;10.50;;;6.95;;
22080;SDS011;11207;59.512;18.050;2023-06-19T09:20:33;8.07;;;6.18;;
22080;SDS011;11207;59.512;18.050;2023-06-19T09:23:03;15.70;;;7.30;;
22080;SDS011;11207;59.512;18.050;2023-06-19T09:25:29;11.60;;;7.05;;
22080;SDS011;11207;59.512;18.050;2023-06-19T09:27:55;10.73;;;6.70;;
22080;SDS011;11207;59.512;18.050;2023-06-19T09:30:22;12.05;;;6.68;;
22080;SDS011;11207;59.512;18.050;2023-06-19T09:32:48;10.10;;;6.57;;
22080;SDS011;11207;59.512;18.050;2023-06-19T09:35:13;9.57;;;6.55;;
22080;SDS011;11207;59.512;18.050;2023-06-19T09:37:39;11.93;;;6.22;;
22080;SDS011;11207;59.512;18.050;2023-06-19T09:40:06;9.48;;;6.10;;
22080;SDS011;11207;59.512;18.050;2023-06-19T09:42:36;10.07;;;6.12;;
22080;SDS011;11207;59.512;18.050;2023-06-19T09:45:04;9.68;;;6.20;;
22080;SDS011;11207;59.512;18.050;2023-06-19T09:47:46;9.60;;;6.15;;
22080;SDS011;11207;59.512;18.050;2023-06-19T09:50:13;8.73;;;5.87;;
22080;SDS011;11207;59.512;18.050;2023-06-19T09:52:40;10.88;;;6.50;;
22080;SDS011;11207;59.512;18.050;2023-06-19T09:55:07;9.95;;;6.78;;
22080;SDS011;11207;59.512;18.050;2023-06-19T09:57:35;12.63;;;6.50;;
22080;SDS011;11207;59.512;18.050;2023-06-19T10:00:04;12.63;;;6.65;;
22080;SDS011;11207;59.512;18.050;2023-06-19T10:02:37;8.30;;;5.40;;
22080;SDS011;11207;59.512;18.050;2023-06-19T10:05:07;14.25;;;6.85;;
22080;SDS011;11207;59.512;18.050;2023-06-19T10:07:36;9.90;;;6.03;;
22080;SDS011;11207;59.512;18.050;2023-06-19T10:10:04;11.77;;;5.97;;
22080;SDS011;11207;59.512;18.050;2023-06-19T10:12:46;9.25;;;6.28;;
22080;SDS011;11207;59.512;18.050;2023-06-19T10:15:13;13.80;;;6.75;;
22080;SDS011;11207;59.512;18.050;2023-06-19T10:17:48;10.38;;;6.10;;
22080;SDS011;11207;59.512;18.050;2023-06-19T10:20:35;9.82;;;5.65;;
22080;SDS011;11207;59.512;18.050;2023-06-19T10:23:08;11.20;;;6.15;;
22080;SDS011;11207;59.512;18.050;2023-06-19T10:25:39;10.13;;;5.72;;
22080;SDS011;11207;59.512;18.050;2023-06-19T10:28:17;8.57;;;5.72;;
22080;SDS011;11207;59.512;18.050;2023-06-19T10:30:44;8.60;;;5.62;;
22080;SDS011;11207;59.512;18.050;2023-06-19T10:33:10;9.07;;;5.37;;
22080;SDS011;11207;59.512;18.050;2023-06-19T10:35:40;7.80;;;5.70;;
22080;SDS011;11207;59.512;18.050;2023-06-19T10:38:07;8.38;;;5.65;;
22080;SDS011;11207;59.512;18.050;2023-06-19T10:40:35;8.30;;;6.03;;
22080;SDS011;11207;59.512;18.050;2023-06-19T10:43:03;7.62;;;5.87;;
22080;SDS011;11207;59.512;18.050;2023-06-19T10:45:29;9.90;;;5.78;;
22080;SDS011;11207;59.512;18.050;2023-06-19T10:47:55;10.98;;;5.97;;
22080;SDS011;11207;59.512;18.050;2023-06-19T10:50:21;11.00;;;6.45;;
22080;SDS011;11207;59.512;18.050;2023-06-19T10:52:48;10.25;;;5.90;;
22080;SDS011;11207;59.512;18.050;2023-06-19T10:55:19;11.20;;;6.10;;
22080;SDS011;11207;59.512;18.050;2023-06-19T10:57:45;7.57;;;6.12;;
22080;SDS011;11207;59.512;18.050;2023-06-19T11:00:21;11.80;;;5.37;;
22080;SDS011;11207;59.512;18.050;2023-06-19T11:02:52;10.50;;;5.57;;
22080;SDS011;11207;59.512;18.050;2023-06-19T11:05:21;10.77;;;5.68;;
22080;SDS011;11207;59.512;18.050;2023-06-19T11:07:55;10.77;;;5.22;;
22080;SDS011;11207;59.512;18.050;2023-06-19T11:10:25;9.50;;;5.53;;
22080;SDS011;11207;59.512;18.050;2023-06-19T11:12:56;15.18;;;6.47;;
22080;SDS011;11207;59.512;18.050;2023-06-19T11:15:33;7.03;;;5.47;;
22080;SDS011;11207;59.512;18.050;2023-06-19T11:18:02;7.82;;;4.82;;
22080;SDS011;11207;59.512;18.050;2023-06-19T11:20:28;9.05;;;5.85;;
22080;SDS011;11207;59.512;18.050;2023-06-19T11:22:58;11.88;;;5.90;;
22080;SDS011;11207;59.512;18.050;2023-06-19T11:25:35;8.40;;;5.25;;
22080;SDS011;11207;59.512;18.050;2023-06-19T11:28:01;9.35;;;5.68;;
22080;SDS011;11207;59.512;18.050;2023-06-19T11:30:31;8.38;;;5.45;;
22080;SDS011;11207;59.512;18.050;2023-06-19T11:32:57;7.57;;;5.25;;
22080;SDS011;11207;59.512;18.050;2023-06-19T11:35:23;6.10;;;5.00;;
22080;SDS011;11207;59.512;18.050;2023-06-19T11:37:50;11.00;;;5.45;;
22080;SDS011;11207;59.512;18.050;2023-06-19T11:40:16;9.45;;;5.53;;
22080;SDS011;11207;59.512;18.050;2023-06-19T11:42:48;11.12;;;6.30;;
22080;SDS011;11207;59.512;18.050;2023-06-19T11:45:14;9.48;;;5.47;;
22080;SDS011;11207;59.512;18.050;2023-06-19T11:47:43;11.60;;;5.85;;
22080;SDS011;11207;59.512;18.050;2023-06-19T11:50:12;10.93;;;5.37;;
22080;SDS011;11207;59.512;18.050;2023-06-19T11:52:41;11.45;;;5.90;;
22080;SDS011;11207;59.512;18.050;2023-06-19T11:55:07;8.25;;;5.95;;
22080;SDS011;11207;59.512;18.050;2023-06-19T11:57:33;13.27;;;5.73;;
22080;SDS011;11207;59.512;18.050;2023-06-19T11:59:59;9.68;;;5.60;;
22080;SDS011;11207;59.512;18.050;2023-06-19T12:02:32;8.93;;;5.12;;
22080;SDS011;11207;59.512;18.050;2023-06-19T12:05:22;10.30;;;6.17;;
22080;SDS011;11207;59.512;18.050;2023-06-19T12:07:47;9.27;;;6.43;;
22080;SDS011;11207;59.512;18.050;2023-06-19T12:10:13;8.82;;;5.18;;
22080;SDS011;11207;59.512;18.050;2023-06-19T12:12:38;8.98;;;6.18;;
22080;SDS011;11207;59.512;18.050;2023-06-19T12:15:04;12.85;;;6.53;;
22080;SDS011;11207;59.512;18.050;2023-06-19T12:17:31;10.67;;;7.00;;
22080;SDS011;11207;59.512;18.050;2023-06-19T12:19:57;8.70;;;6.03;;
22080;SDS011;11207;59.512;18.050;2023-06-19T12:22:22;12.93;;;6.57;;
22080;SDS011;11207;59.512;18.050;2023-06-19T12:24:48;11.12;;;6.57;;
22080;SDS011;11207;59.512;18.050;2023-06-19T12:27:15;13.27;;;6.62;;
22080;SDS011;11207;59.512;18.050;2023-06-19T12:29:40;10.13;;;6.67;;
22080;SDS011;11207;59.512;18.050;2023-06-19T12:32:06;9.13;;;6.47;;
22080;SDS011;11207;59.512;18.050;2023-06-19T12:34:35;16.33;;;7.32;;
22080;SDS011;11207;59.512;18.050;2023-06-19T12:37:01;12.23;;;6.47;;
22080;SDS011;11207;59.512;18.050;2023-06-19T12:39:26;12.77;;;7.15;;
22080;SDS011;11207;59.512;18.050;2023-06-19T12:41:52;11.63;;;6.60;;
22080;SDS011;11207;59.512;18.050;2023-06-19T12:44:24;10.10;;;6.63;;
22080;SDS011;11207;59.512;18.050;2023-06-19T12:46:50;9.90;;;7.20;;
22080;SDS011;11207;59.512;18.050;2023-06-19T12:49:15;9.63;;;6.93;;
22080;SDS011;11207;59.512;18.050;2023-06-19T12:51:41;12.30;;;6.72;;
22080;SDS011;11207;59.512;18.050;2023-06-19T12:54:07;10.80;;;6.60;;
22080;SDS011;11207;59.512;18.050;2023-06-19T12:56:34;12.98;;;7.10;;
22080;SDS011;11207;59.512;18.050;2023-06-19T12:59:03;19.02;;;6.82;;
22080;SDS011;11207;59.512;18.050;2023-06-19T13:01:31;15.05;;;7.15;;
22080;SDS011;11207;59.512;18.050;2023-06-19T13:03:59;8.82;;;6.70;;
22080;SDS011;11207;59.512;18.050;2023-06-19T13:06:24;8.75;;;6.00;;
22080;SDS011;11207;59.512;18.050;2023-06-19T13:08:50;8.48;;;6.45;;
22080;SDS011;11207;59.512;18.050;2023-06-19T13:11:16;14.63;;;7.07;;
22080;SDS011;11207;59.512;18.050;2023-06-19T13:13:44;9.77;;;6.65;;
22080;SDS011;11207;59.512;18.050;2023-06-19T13:16:12;10.75;;;6.45;;
22080;SDS011;11207;59.512;18.050;2023-06-19T13:18:37;8.13;;;6.22;;
22080;SDS011;11207;59.512;18.050;2023-06-19T13:21:05;10.23;;;7.37;;
22080;SDS011;11207;59.512;18.050;2023-06-19T13:23:31;9.73;;;7.37;;
22080;SDS011;11207;59.512;18.050;2023-06-19T13:25:57;11.63;;;6.82;;
22080;SDS011;11207;59.512;18.050;2023-06-19T13:28:22;9.27;;;7.00;;
22080;SDS011;11207;59.512;18.050;2023-06-19T13:30:51;11.20;;;7.45;;
22080;SDS011;11207;59.512;18.050;2023-06-19T13:33:17;10.10;;;7.07;;
22080;SDS011;11207;59.512;18.050;2023-06-19T13:35:43;9.45;;;6.87;;
22080;SDS011;11207;59.512;18.050;2023-06-19T13:38:09;11.40;;;7.30;;
22080;SDS011;11207;59.512;18.050;2023-06-19T13:40:37;9.35;;;6.75;;
22080;SDS011;11207;59.512;18.050;2023-06-19T13:43:05;8.15;;;6.95;;
22080;SDS011;11207;59.512;18.050;2023-06-19T13:45:31;10.23;;;7.35;;
22080;SDS011;11207;59.512;18.050;2023-06-19T13:47:59;9.07;;;7.12;;
22080;SDS011;11207;59.512;18.050;2023-06-19T13:50:29;9.45;;;7.62;;
22080;SDS011;11207;59.512;18.050;2023-06-19T13:52:54;13.40;;;6.75;;
22080;SDS011;11207;59.512;18.050;2023-06-19T13:55:20;10.43;;;6.97;;
22080;SDS011;11207;59.512;18.050;2023-06-19T13:57:46;13.00;;;7.20;;
22080;SDS011;11207;59.512;18.050;2023-06-19T14:00:12;10.48;;;6.20;;
22080;SDS011;11207;59.512;18.050;2023-06-19T14:02:38;10.80;;;6.78;;
22080;SDS011;11207;59.512;18.050;2023-06-19T14:05:04;9.82;;;6.57;;
22080;SDS011;11207;59.512;18.050;2023-06-19T14:07:31;9.43;;;6.93;;
22080;SDS011;11207;59.512;18.050;2023-06-19T14:09:57;12.85;;;7.82;;
22080;SDS011;11207;59.512;18.050;2023-06-19T14:12:24;11.12;;;7.40;;
22080;SDS011;11207;59.512;18.050;2023-06-19T14:14:50;9.15;;;7.07;;
22080;SDS011;11207;59.512;18.050;2023-06-19T14:17:16;11.00;;;7.65;;